Time;durP1;ratioP1;P1;durP2;ratioP2;P2;SDS_P1;SDS_P2;PMS_P1;PMS_P2;Temp;Humidity;BMP_temperature;BMP_pressure;BME280_temperature;BME280_humidity;BME280_pressure;Samples;Min_cycle;Max_cycle;Signal;HPM_P1;HPM_P2
2022/03/28 00:00:16;;;;;;;29.33;13.85;;;;;;;;;;5098950;28;20054;-47
2022/03/28 00:02:43;;;;;;;47.97;19.40;;;;;;;;;;5103730;28;20184;-47
2022/03/28 00:05:09;;;;;;;34.47;15.90;;;;;;;;;;5100242;28;20051;-45
2022/03/28 00:07:34;;;;;;;23.30;15.77;;;;;;;;;;5100840;28;20048;-45
2022/03/28 00:09:59;;;;;;;23.45;14.02;;;;;;;;;;5100007;28;20070;-46
2022/03/28 00:12:25;;;;;;;23.20;15.57;;;;;;;;;;5101194;28;20044;-44
2022/03/28 00:14:50;;;;;;;29.20;16.65;;;;;;;;;;5099301;28;20036;-48
2022/03/28 00:17:15;;;;;;;22.85;16.73;;;;;;;;;;5098804;28;20039;-47
2022/03/28 00:19:41;;;;;;;25.13;15.70;;;;;;;;;;5098630;28;20538;-45
2022/03/28 00:22:06;;;;;;;42.83;14.50;;;;;;;;;;5100701;28;20506;-45
2022/03/28 00:24:32;;;;;;;25.40;15.73;;;;;;;;;;5100709;28;20060;-47
2022/03/28 00:26:57;;;;;;;42.17;14.43;;;;;;;;;;5100168;28;20040;-47
2022/03/28 00:29:22;;;;;;;24.63;10.50;;;;;;;;;;5100743;28;20043;-47
2022/03/28 00:31:48;;;;;;;17.50;11.60;;;;;;;;;;5100258;28;20460;-46
2022/03/28 00:34:15;;;;;;;10.75;9.38;;;;;;;;;;5099836;27;20036;-46
2022/03/28 00:36:41;;;;;;;44.78;12.85;;;;;;;;;;5100014;28;20075;-46
2022/03/28 00:39:06;;;;;;;42.97;11.60;;;;;;;;;;5100503;28;20048;-47
2022/03/28 00:41:31;;;;;;;29.48;12.25;;;;;;;;;;5102112;28;20526;-47
2022/03/28 00:43:58;;;;;;;15.35;11.38;;;;;;;;;;5099906;28;20063;-45
2022/03/28 00:46:24;;;;;;;28.10;11.65;;;;;;;;;;5098613;28;20071;-48
2022/03/28 00:48:50;;;;;;;20.83;12.30;;;;;;;;;;5096520;28;20533;-47
2022/03/28 00:51:16;;;;;;;48.97;14.23;;;;;;;;;;5098597;28;20189;-44
2022/03/28 00:53:42;;;;;;;26.90;12.75;;;;;;;;;;5096674;28;20570;-46
2022/03/28 00:56:08;;;;;;;36.70;14.27;;;;;;;;;;5099326;28;20048;-49
2022/03/28 00:58:34;;;;;;;25.10;14.13;;;;;;;;;;5094698;28;20043;-44
2022/03/28 01:00:59;;;;;;;34.13;14.82;;;;;;;;;;5094388;28;20197;-46
2022/03/28 01:03:24;;;;;;;41.78;14.57;;;;;;;;;;5099263;28;20158;-44
2022/03/28 01:05:50;;;;;;;21.13;13.40;;;;;;;;;;5099352;28;20181;-45
2022/03/28 01:08:16;;;;;;;25.05;12.95;;;;;;;;;;5099241;28;20048;-46
2022/03/28 01:10:42;;;;;;;26.30;12.90;;;;;;;;;;5101483;28;20040;-50
2022/03/28 01:13:08;;;;;;;26.10;14.65;;;;;;;;;;5098720;28;20087;-45
2022/03/28 01:15:33;;;;;;;38.30;12.68;;;;;;;;;;5099902;28;20101;-47
2022/03/28 01:18:09;;;;;;;21.00;12.38;;;;;;;;;;5100311;28;20059;-49
2022/03/28 01:20:36;;;;;;;22.70;9.63;;;;;;;;;;5098515;28;20044;-46
2022/03/28 01:23:01;;;;;;;35.25;12.80;;;;;;;;;;5098867;28;20044;-49
2022/03/28 01:25:28;;;;;;;27.02;15.20;;;;;;;;;;5100471;28;20039;-46
2022/03/28 01:27:54;;;;;;;25.50;12.18;;;;;;;;;;5099322;28;20156;-45
2022/03/28 01:30:20;;;;;;;30.58;14.25;;;;;;;;;;5102968;28;20502;-49
2022/03/28 01:32:46;;;;;;;20.13;13.52;;;;;;;;;;5097676;28;20538;-49
2022/03/28 01:35:12;;;;;;;34.95;14.15;;;;;;;;;;5098027;28;20093;-51
2022/03/28 01:37:37;;;;;;;29.95;12.48;;;;;;;;;;5099047;28;20063;-49
2022/03/28 01:40:04;;;;;;;27.50;13.90;;;;;;;;;;5099507;28;20083;-47
2022/03/28 01:42:29;;;;;;;31.02;15.15;;;;;;;;;;5098918;28;20615;-48
2022/03/28 01:44:57;;;;;;;35.25;14.57;;;;;;;;;;5098855;28;20629;-51
2022/03/28 01:47:25;;;;;;;25.02;12.90;;;;;;;;;;5096598;28;20482;-48
2022/03/28 01:49:50;;;;;;;30.02;11.52;;;;;;;;;;5099291;28;20105;-48
2022/03/28 01:52:15;;;;;;;24.52;13.82;;;;;;;;;;5099464;28;20609;-47
2022/03/28 01:54:41;;;;;;;26.08;15.88;;;;;;;;;;5095093;28;20160;-51
2022/03/28 01:57:10;;;;;;;26.80;11.93;;;;;;;;;;5094621;28;20071;-49
2022/03/28 01:59:35;;;;;;;28.55;14.95;;;;;;;;;;5096231;28;20040;-45
2022/03/28 02:02:05;;;;;;;24.35;14.25;;;;;;;;;;5094482;28;20556;-45
2022/03/28 02:04:32;;;;;;;34.58;14.02;;;;;;;;;;5098110;28;20414;-44
2022/03/28 02:06:57;;;;;;;26.23;11.60;;;;;;;;;;5097951;28;20047;-46
2022/03/28 02:09:23;;;;;;;22.27;13.30;;;;;;;;;;5099169;28;20706;-48
2022/03/28 02:11:48;;;;;;;23.58;13.68;;;;;;;;;;5097680;28;20039;-46
2022/03/28 02:14:13;;;;;;;25.95;13.27;;;;;;;;;;5101657;28;20048;-44
2022/03/28 02:16:38;;;;;;;27.35;13.55;;;;;;;;;;5096282;28;20123;-45
2022/03/28 02:19:04;;;;;;;26.73;13.95;;;;;;;;;;5098051;28;20044;-44
2022/03/28 02:21:29;;;;;;;45.42;18.05;;;;;;;;;;5096813;28;20095;-44
2022/03/28 02:23:54;;;;;;;29.42;14.90;;;;;;;;;;5097265;28;20127;-45
2022/03/28 02:26:20;;;;;;;25.63;13.70;;;;;;;;;;5096217;28;20414;-47
2022/03/28 02:28:45;;;;;;;35.40;12.68;;;;;;;;;;5097592;28;20043;-45
2022/03/28 02:31:10;;;;;;;41.80;12.80;;;;;;;;;;5100095;28;20410;-44
2022/03/28 02:33:36;;;;;;;32.63;12.02;;;;;;;;;;5100361;28;20093;-44
2022/03/28 02:36:01;;;;;;;22.70;11.13;;;;;;;;;;5095826;28;20055;-48
2022/03/28 02:38:27;;;;;;;44.92;13.38;;;;;;;;;;5098952;28;20433;-44
2022/03/28 02:40:53;;;;;;;31.52;12.45;;;;;;;;;;5095233;28;20047;-45
2022/03/28 02:43:21;;;;;;;45.25;14.50;;;;;;;;;;5097466;28;20549;-45
2022/03/28 02:45:47;;;;;;;29.00;13.00;;;;;;;;;;5098964;28;20051;-44
2022/03/28 02:48:12;;;;;;;20.10;12.50;;;;;;;;;;5097339;28;20430;-45
2022/03/28 02:50:38;;;;;;;29.30;13.70;;;;;;;;;;5098064;28;20039;-45
2022/03/28 02:53:03;;;;;;;24.60;13.25;;;;;;;;;;5096183;28;20052;-46
2022/03/28 02:55:28;;;;;;;24.65;11.48;;;;;;;;;;5095577;28;20101;-46
2022/03/28 02:57:54;;;;;;;38.17;11.52;;;;;;;;;;5098496;28;20503;-47
2022/03/28 03:00:19;;;;;;;26.67;14.13;;;;;;;;;;5096747;28;20048;-45
2022/03/28 03:02:44;;;;;;;24.02;14.13;;;;;;;;;;5097961;28;20040;-46
2022/03/28 03:05:10;;;;;;;27.90;13.75;;;;;;;;;;5096518;28;20063;-47
2022/03/28 03:07:36;;;;;;;39.70;14.30;;;;;;;;;;5097518;28;20062;-45
2022/03/28 03:10:01;;;;;;;36.33;13.60;;;;;;;;;;5098382;28;20565;-46
2022/03/28 03:12:27;;;;;;;44.90;12.20;;;;;;;;;;5095690;28;20742;-45
2022/03/28 03:14:52;;;;;;;37.58;12.02;;;;;;;;;;5094165;28;20040;-47
2022/03/28 03:17:18;;;;;;;51.35;13.65;;;;;;;;;;5096221;28;20067;-49
2022/03/28 03:19:44;;;;;;;30.23;15.07;;;;;;;;;;5098635;28;20411;-47
2022/03/28 03:22:10;;;;;;;36.00;11.38;;;;;;;;;;5098196;28;20192;-44
2022/03/28 03:24:35;;;;;;;32.65;12.45;;;;;;;;;;5096056;28;20567;-44
2022/03/28 03:27:00;;;;;;;21.80;11.93;;;;;;;;;;5097415;28;20058;-46
2022/03/28 03:29:26;;;;;;;33.80;12.30;;;;;;;;;;5098202;28;20679;-45
2022/03/28 03:31:52;;;;;;;26.90;11.75;;;;;;;;;;5095597;28;20078;-47
2022/03/28 03:34:17;;;;;;;23.83;10.95;;;;;;;;;;5095166;28;20552;-45
2022/03/28 03:36:43;;;;;;;30.23;10.40;;;;;;;;;;5097541;28;20020;-45
2022/03/28 03:39:08;;;;;;;32.88;11.50;;;;;;;;;;5101030;28;20143;-44
2022/03/28 03:41:33;;;;;;;21.50;10.25;;;;;;;;;;5101894;28;20134;-45
2022/03/28 03:43:59;;;;;;;30.52;10.90;;;;;;;;;;5098078;28;20059;-47
2022/03/28 03:46:24;;;;;;;18.77;10.25;;;;;;;;;;5100728;28;20039;-49
2022/03/28 03:48:49;;;;;;;24.08;11.63;;;;;;;;;;5103071;28;20466;-46
2022/03/28 03:51:15;;;;;;;38.08;13.57;;;;;;;;;;5100004;28;20153;-49
2022/03/28 03:53:40;;;;;;;45.17;12.70;;;;;;;;;;5103393;28;20047;-47
2022/03/28 03:56:05;;;;;;;24.88;11.98;;;;;;;;;;5103400;28;20039;-46
2022/03/28 03:58:31;;;;;;;37.92;12.43;;;;;;;;;;5098150;27;20541;-46
2022/03/28 04:00:56;;;;;;;29.45;11.43;;;;;;;;;;5099502;28;20487;-44
2022/03/28 04:03:21;;;;;;;40.15;12.73;;;;;;;;;;5100316;28;20124;-45
2022/03/28 04:05:47;;;;;;;34.58;14.02;;;;;;;;;;5100408;28;20073;-45
2022/03/28 04:08:12;;;;;;;20.10;10.63;;;;;;;;;;5100156;28;20047;-47
2022/03/28 04:10:37;;;;;;;30.40;12.70;;;;;;;;;;5101257;28;20053;-46
2022/03/28 04:13:03;;;;;;;27.67;11.02;;;;;;;;;;5099722;28;20509;-46
2022/03/28 04:15:28;;;;;;;30.52;15.88;;;;;;;;;;5100429;28;20078;-47
2022/03/28 04:17:54;;;;;;;24.48;11.52;;;;;;;;;;5100562;28;20070;-48
2022/03/28 04:20:19;;;;;;;38.25;13.77;;;;;;;;;;5099890;28;20735;-46
2022/03/28 04:22:48;;;;;;;35.33;11.88;;;;;;;;;;5100491;28;20047;-48
2022/03/28 04:25:14;;;;;;;33.58;11.82;;;;;;;;;;5099917;28;20055;-45
2022/03/28 04:27:40;;;;;;;31.05;12.50;;;;;;;;;;5100600;28;20093;-45
2022/03/28 04:30:07;;;;;;;33.85;10.45;;;;;;;;;;5099789;28;20471;-45
2022/03/28 04:32:32;;;;;;;42.42;13.52;;;;;;;;;;5101534;28;20560;-45
2022/03/28 04:34:57;;;;;;;27.75;13.43;;;;;;;;;;5113436;27;20047;-46
2022/03/28 04:37:23;;;;;;;22.38;13.35;;;;;;;;;;5097574;28;20047;-47
2022/03/28 04:39:48;;;;;;;36.40;13.43;;;;;;;;;;5098048;28;20063;-48
2022/03/28 04:42:14;;;;;;;29.45;16.33;;;;;;;;;;5100948;28;20046;-44
2022/03/28 04:44:39;;;;;;;23.67;14.70;;;;;;;;;;5097202;28;20051;-46
2022/03/28 04:47:04;;;;;;;34.53;15.93;;;;;;;;;;5096781;28;20456;-45
2022/03/28 04:49:30;;;;;;;33.10;15.45;;;;;;;;;;5098537;28;20557;-46
2022/03/28 04:51:55;;;;;;;24.48;13.82;;;;;;;;;;5100339;28;20661;-47
2022/03/28 04:54:20;;;;;;;25.20;12.23;;;;;;;;;;5096024;28;20083;-44
2022/03/28 04:56:45;;;;;;;45.05;18.05;;;;;;;;;;5100363;28;20052;-49
2022/03/28 04:59:11;;;;;;;62.80;18.80;;;;;;;;;;5099299;28;20376;-47
2022/03/28 05:01:36;;;;;;;28.90;11.30;;;;;;;;;;5097138;28;20043;-46
2022/03/28 05:04:02;;;;;;;38.67;13.50;;;;;;;;;;5097060;28;20255;-51
2022/03/28 05:06:27;;;;;;;28.85;12.85;;;;;;;;;;5099804;28;20040;-44
2022/03/28 05:08:53;;;;;;;32.58;13.38;;;;;;;;;;5097210;28;20463;-44
2022/03/28 05:11:22;;;;;;;25.63;12.73;;;;;;;;;;5099307;28;20566;-52
2022/03/28 05:13:47;;;;;;;23.48;21.02;;;;;;;;;;5099617;28;20081;-44
2022/03/28 05:16:13;;;;;;;32.38;13.00;;;;;;;;;;5098312;28;20047;-46
2022/03/28 05:18:38;;;;;;;15.85;9.23;;;;;;;;;;5114583;27;20130;-45
2022/03/28 05:21:03;;;;;;;27.17;11.45;;;;;;;;;;5098229;28;20039;-43
2022/03/28 05:23:28;;;;;;;45.08;12.50;;;;;;;;;;5096304;28;20602;-46
2022/03/28 05:25:54;;;;;;;21.00;12.00;;;;;;;;;;5096974;28;20092;-45
2022/03/28 05:28:19;;;;;;;24.80;13.88;;;;;;;;;;5095869;28;20048;-48
2022/03/28 05:30:44;;;;;;;108.97;37.00;;;;;;;;;;5095086;28;20044;-47
2022/03/28 05:33:10;;;;;;;54.50;20.83;;;;;;;;;;5098741;28;20174;-43
2022/03/28 05:35:35;;;;;;;22.55;14.68;;;;;;;;;;5096165;28;20042;-47
2022/03/28 05:38:00;;;;;;;27.42;15.70;;;;;;;;;;5098812;28;20070;-47
2022/03/28 05:40:26;;;;;;;27.67;13.05;;;;;;;;;;5098782;28;20171;-47
2022/03/28 05:42:51;;;;;;;30.90;12.20;;;;;;;;;;5098288;28;20048;-46
2022/03/28 05:45:16;;;;;;;19.00;10.80;;;;;;;;;;5097055;28;20116;-47
2022/03/28 05:47:42;;;;;;;25.67;14.10;;;;;;;;;;5095015;28;20451;-44
2022/03/28 05:50:08;;;;;;;46.22;13.93;;;;;;;;;;5094862;28;20696;-45
2022/03/28 05:52:33;;;;;;;42.67;15.75;;;;;;;;;;5096237;28;20050;-46
2022/03/28 05:54:58;;;;;;;31.05;11.75;;;;;;;;;;5096586;28;20478;-47
2022/03/28 05:57:24;;;;;;;32.55;14.52;;;;;;;;;;5097639;28;20050;-45
2022/03/28 05:59:49;;;;;;;36.05;17.60;;;;;;;;;;5094628;28;20046;-44
2022/03/28 06:02:14;;;;;;;39.83;16.55;;;;;;;;;;5097837;28;20096;-47
2022/03/28 06:04:40;;;;;;;35.08;15.65;;;;;;;;;;5097021;28;20205;-45
2022/03/28 06:07:05;;;;;;;28.35;14.10;;;;;;;;;;5098335;28;20402;-46
2022/03/28 06:09:30;;;;;;;32.35;10.32;;;;;;;;;;5099322;28;20048;-49
2022/03/28 06:11:56;;;;;;;34.33;15.50;;;;;;;;;;5099717;28;20044;-47
2022/03/28 06:14:21;;;;;;;27.83;11.40;;;;;;;;;;5100701;28;20039;-49
2022/03/28 06:16:46;;;;;;;35.60;10.65;;;;;;;;;;5099778;28;20615;-46
2022/03/28 06:19:12;;;;;;;41.45;10.90;;;;;;;;;;5098427;28;20032;-49
2022/03/28 06:21:37;;;;;;;45.53;15.75;;;;;;;;;;5096868;28;20058;-47
2022/03/28 06:24:03;;;;;;;25.05;15.35;;;;;;;;;;5096812;28;20135;-48
2022/03/28 06:26:28;;;;;;;22.75;15.35;;;;;;;;;;5095243;28;20040;-45
2022/03/28 06:28:54;;;;;;;31.58;17.02;;;;;;;;;;5097657;28;20044;-47
2022/03/28 06:31:19;;;;;;;35.58;13.63;;;;;;;;;;5100949;28;20140;-50
2022/03/28 06:33:44;;;;;;;23.52;11.27;;;;;;;;;;5098485;28;20048;-46
2022/03/28 06:36:10;;;;;;;46.25;14.82;;;;;;;;;;5097708;28;20550;-51
2022/03/28 06:38:35;;;;;;;32.30;14.10;;;;;;;;;;5095967;28;20479;-48
2022/03/28 06:41:01;;;;;;;64.97;16.05;;;;;;;;;;5099041;28;20074;-50
2022/03/28 06:43:26;;;;;;;26.83;12.73;;;;;;;;;;5095879;28;20103;-51
2022/03/28 06:45:51;;;;;;;30.63;14.05;;;;;;;;;;5096238;28;20052;-52
2022/03/28 06:48:18;;;;;;;32.63;14.30;;;;;;;;;;5095902;28;20051;-49
2022/03/28 06:50:43;;;;;;;35.67;15.98;;;;;;;;;;5094979;28;20032;-48
2022/03/28 06:53:09;;;;;;;27.52;13.23;;;;;;;;;;5093460;28;20320;-47
2022/03/28 06:55:34;;;;;;;28.35;13.43;;;;;;;;;;5096472;28;20570;-47
2022/03/28 06:57:59;;;;;;;22.38;13.10;;;;;;;;;;5095174;28;20031;-47
2022/03/28 07:00:25;;;;;;;29.92;12.60;;;;;;;;;;5099862;28;20046;-50
2022/03/28 07:02:50;;;;;;;28.48;12.55;;;;;;;;;;5097676;28;20446;-45
2022/03/28 07:05:15;;;;;;;36.42;15.30;;;;;;;;;;5095163;28;20687;-46
2022/03/28 07:07:48;;;;;;;26.10;15.10;;;;;;;;;;5095555;28;20039;-47
2022/03/28 07:10:15;;;;;;;29.02;13.45;;;;;;;;;;5101021;28;20597;-46
2022/03/28 07:12:41;;;;;;;46.90;15.07;;;;;;;;;;5100739;28;20032;-50
2022/03/28 07:15:07;;;;;;;32.67;14.00;;;;;;;;;;5100084;28;20035;-52
2022/03/28 07:17:44;;;;;;;26.05;12.85;;;;;;;;;;5100328;28;20194;-46
2022/03/28 07:20:10;;;;;;;37.25;13.43;;;;;;;;;;5097904;28;20120;-49
2022/03/28 07:22:35;;;;;;;43.35;16.25;;;;;;;;;;5100429;28;20062;-51
2022/03/28 07:25:01;;;;;;;73.10;26.83;;;;;;;;;;5099261;28;20117;-48
2022/03/28 07:27:27;;;;;;;64.80;24.20;;;;;;;;;;5100223;28;20712;-44
2022/03/28 07:29:52;;;;;;;66.97;24.55;;;;;;;;;;5096102;28;20169;-43
2022/03/28 07:32:17;;;;;;;59.05;22.83;;;;;;;;;;5101846;28;20051;-45
2022/03/28 07:34:42;;;;;;;46.28;23.20;;;;;;;;;;5101785;28;20046;-47
2022/03/28 07:37:09;;;;;;;32.20;18.08;;;;;;;;;;5099162;28;20509;-47
2022/03/28 07:39:37;;;;;;;37.08;19.35;;;;;;;;;;5098525;28;20075;-46
2022/03/28 07:42:04;;;;;;;37.35;16.60;;;;;;;;;;5098423;28;20074;-45
2022/03/28 07:44:29;;;;;;;13.18;9.52;;;;;;;;;;5100710;28;20097;-57
2022/03/28 07:46:55;;;;;;;26.73;14.18;;;;;;;;;;5101541;28;20052;-57
2022/03/28 07:49:23;;;;;;;19.48;12.27;;;;;;;;;;5096560;28;20039;-56
2022/03/28 07:51:49;;;;;;;30.92;15.93;;;;;;;;;;5102657;28;20040;-65
2022/03/28 07:54:14;;;;;;;22.70;13.73;;;;;;;;;;5099464;28;20573;-65
2022/03/28 07:56:40;;;;;;;19.98;11.90;;;;;;;;;;5100446;28;20662;-65
2022/03/28 07:59:05;;;;;;;17.27;13.65;;;;;;;;;;5098619;28;20107;-65
2022/03/28 08:01:30;;;;;;;14.25;9.77;;;;;;;;;;5097182;28;20049;-65
2022/03/28 08:03:56;;;;;;;19.67;13.98;;;;;;;;;;5098616;28;20089;-65
2022/03/28 08:06:21;;;;;;;26.60;16.48;;;;;;;;;;5098949;28;20159;-65
2022/03/28 08:08:46;;;;;;;33.92;23.55;;;;;;;;;;5097934;28;20096;-65
2022/03/28 08:11:12;;;;;;;44.13;21.83;;;;;;;;;;5100163;28;20524;-65
2022/03/28 08:13:37;;;;;;;36.13;16.70;;;;;;;;;;5098988;28;20062;-65
2022/03/28 08:16:03;;;;;;;29.52;18.90;;;;;;;;;;5097107;28;20044;-65
2022/03/28 08:18:29;;;;;;;47.13;21.70;;;;;;;;;;5097760;28;20434;-66
2022/03/28 08:20:55;;;;;;;25.70;15.52;;;;;;;;;;5094890;28;20055;-65
2022/03/28 08:23:20;;;;;;;50.97;17.48;;;;;;;;;;5098713;28;20048;-66
2022/03/28 08:25:55;;;;;;;52.00;21.40;;;;;;;;;;5099874;28;20047;-71
2022/03/28 08:28:20;;;;;;;39.30;18.05;;;;;;;;;;5098410;28;20043;-66
2022/03/28 08:30:45;;;;;;;29.90;18.50;;;;;;;;;;5099526;28;20051;-66
2022/03/28 08:33:11;;;;;;;41.85;23.08;;;;;;;;;;5099652;27;20123;-66
2022/03/28 08:35:36;;;;;;;34.53;20.95;;;;;;;;;;5098375;27;20050;-67
2022/03/28 08:38:02;;;;;;;35.88;19.55;;;;;;;;;;5098996;27;20530;-66
2022/03/28 08:40:27;;;;;;;31.65;19.20;;;;;;;;;;5095270;28;20074;-66
2022/03/28 08:42:53;;;;;;;39.88;18.25;;;;;;;;;;5103739;28;20188;-66
2022/03/28 08:45:18;;;;;;;43.38;20.13;;;;;;;;;;5100340;28;20684;-66
2022/03/28 08:47:45;;;;;;;40.72;19.13;;;;;;;;;;5097804;28;20048;-65
2022/03/28 08:50:11;;;;;;;54.08;17.27;;;;;;;;;;5099032;28;20048;-64
2022/03/28 08:52:40;;;;;;;35.63;15.10;;;;;;;;;;5096942;28;20035;-66
2022/03/28 08:55:06;;;;;;;22.27;17.05;;;;;;;;;;5096342;28;20071;-66
2022/03/28 08:57:32;;;;;;;27.30;19.17;;;;;;;;;;5099896;28;20136;-67
2022/03/28 08:59:58;;;;;;;33.20;19.73;;;;;;;;;;5097310;28;20549;-66
2022/03/28 09:02:31;;;;;;;36.90;18.10;;;;;;;;;;5099543;28;20058;-66
2022/03/28 09:04:57;;;;;;;40.65;18.25;;;;;;;;;;5101265;28;20108;-66
2022/03/28 09:07:26;;;;;;;50.10;20.55;;;;;;;;;;5098534;28;20051;-66
2022/03/28 09:09:59;;;;;;;34.95;19.33;;;;;;;;;;5099641;28;20051;-66
2022/03/28 09:12:24;;;;;;;42.90;17.42;;;;;;;;;;5102939;28;20043;-65
2022/03/28 09:14:54;;;;;;;28.13;13.63;;;;;;;;;;5100456;28;20515;-66
2022/03/28 09:17:20;;;;;;;35.80;16.60;;;;;;;;;;5097973;28;20599;-66
2022/03/28 09:19:54;;;;;;;28.60;16.90;;;;;;;;;;5099820;28;20131;-66
2022/03/28 09:22:20;;;;;;;57.85;20.35;;;;;;;;;;5096594;28;20048;-66
2022/03/28 09:24:46;;;;;;;33.40;14.85;;;;;;;;;;5098894;28;20136;-68
2022/03/28 09:27:13;;;;;;;23.50;16.83;;;;;;;;;;5098148;27;20043;-66
2022/03/28 09:29:52;;;;;;;23.95;16.77;;;;;;;;;;5095985;28;20060;-66
2022/03/28 09:32:25;;;;;;;27.23;16.23;;;;;;;;;;5097765;28;20043;-66
2022/03/28 09:35:09;;;;;;;31.15;17.63;;;;;;;;;;5100001;28;20036;-67
2022/03/28 09:37:46;;;;;;;20.83;15.18;;;;;;;;;;5097780;28;20067;-66
2022/03/28 09:40:22;;;;;;;26.10;13.90;;;;;;;;;;5094752;28;20052;-66
2022/03/28 09:42:48;;;;;;;41.33;18.35;;;;;;;;;;5096716;28;20123;-66
2022/03/28 09:45:20;;;;;;;48.72;16.13;;;;;;;;;;5098382;28;20116;-68
2022/03/28 09:48:02;;;;;;;28.38;15.05;;;;;;;;;;5098582;28;20097;-67
2022/03/28 09:50:28;;;;;;;51.67;23.55;;;;;;;;;;5099488;28;20050;-67
2022/03/28 09:52:53;;;;;;;15.85;10.77;;;;;;;;;;5097210;28;20040;-67
2022/03/28 09:55:18;;;;;;;30.00;15.55;;;;;;;;;;5099326;28;20036;-66
2022/03/28 09:57:44;;;;;;;35.92;16.23;;;;;;;;;;5097129;28;20040;-66
2022/03/28 10:00:12;;;;;;;38.10;15.23;;;;;;;;;;5096043;28;20059;-66
2022/03/28 10:02:38;;;;;;;13.30;7.38;;;;;;;;;;5099441;28;20051;-65
2022/03/28 10:05:03;;;;;;;10.05;4.88;;;;;;;;;;5096377;28;20444;-70
2022/03/28 10:07:30;;;;;;;19.27;7.10;;;;;;;;;;5096771;28;20046;-67
2022/03/28 10:09:56;;;;;;;26.88;10.20;;;;;;;;;;5099311;28;20497;-68
2022/03/28 10:12:22;;;;;;;31.15;12.88;;;;;;;;;;5094206;28;20031;-68
2022/03/28 10:14:54;;;;;;;33.67;9.00;;;;;;;;;;5096329;28;20138;-67
2022/03/28 10:17:19;;;;;;;24.45;11.57;;;;;;;;;;5101012;28;20052;-66
2022/03/28 10:19:45;;;;;;;26.50;14.55;;;;;;;;;;5096493;28;20047;-66
2022/03/28 10:22:13;;;;;;;18.58;11.07;;;;;;;;;;5096617;28;20063;-66
2022/03/28 10:24:40;;;;;;;27.08;11.82;;;;;;;;;;5096477;28;20059;-65
2022/03/28 10:27:06;;;;;;;20.10;9.20;;;;;;;;;;5098129;28;20118;-67
2022/03/28 10:29:35;;;;;;;36.63;12.20;;;;;;;;;;5101381;28;20534;-66
2022/03/28 10:32:06;;;;;;;21.90;9.35;;;;;;;;;;5098034;28;20495;-68
2022/03/28 10:34:31;;;;;;;;;;;;;;;;;;5100815;28;20510;-65
2022/03/28 10:37:17;;;;;;;10.75;7.35;;;;;;;;;;5096657;28;19915;-69
2022/03/28 10:39:42;;;;;;;15.20;9.93;;;;;;;;;;5098355;28;20571;-67
2022/03/28 10:42:13;;;;;;;18.27;9.20;;;;;;;;;;5096123;28;20040;-67
2022/03/28 10:44:58;;;;;;;22.67;4.80;;;;;;;;;;5097272;28;20047;-67
2022/03/28 10:47:38;;;;;;;20.33;7.53;;;;;;;;;;5097082;28;20375;-66
2022/03/28 10:50:04;;;;;;;16.42;6.20;;;;;;;;;;5097146;28;20052;-67
2022/03/28 10:52:29;;;;;;;27.90;10.48;;;;;;;;;;5092878;28;20040;-67
2022/03/28 10:54:55;;;;;;;60.47;12.23;;;;;;;;;;5093770;28;20043;-67
2022/03/28 10:57:24;;;;;;;23.42;9.82;;;;;;;;;;5095256;28;20086;-69
2022/03/28 11:00:10;;;;;;;23.65;11.50;;;;;;;;;;5097848;28;20064;-77
2022/03/28 11:02:35;;;;;;;26.50;8.65;;;;;;;;;;5099073;28;20682;-77
2022/03/28 11:05:07;;;;;;;14.38;7.07;;;;;;;;;;5096700;28;20051;-67
2022/03/28 11:07:33;;;;;;;14.00;6.47;;;;;;;;;;5098196;28;20067;-67
2022/03/28 11:09:58;;;;;;;24.80;10.60;;;;;;;;;;5094651;28;20075;-67
2022/03/28 11:12:40;;;;;;;34.53;10.20;;;;;;;;;;5095578;28;20411;-68
2022/03/28 11:15:11;;;;;;;24.38;6.68;;;;;;;;;;5093576;28;20048;-68
2022/03/28 11:17:37;;;;;;;27.63;8.52;;;;;;;;;;5097162;28;20043;-66
2022/03/28 11:20:18;;;;;;;11.65;6.45;;;;;;;;;;5097490;28;20047;-66
2022/03/28 11:22:47;;;;;;;19.27;6.63;;;;;;;;;;5096395;28;20403;-66
2022/03/28 11:25:31;;;;;;;18.15;7.90;;;;;;;;;;5098470;28;20043;-65
2022/03/28 11:28:05;;;;;;;20.10;9.30;;;;;;;;;;5095212;28;20044;-65
2022/03/28 11:30:31;;;;;;;29.75;9.65;;;;;;;;;;5097938;28;20520;-65
2022/03/28 11:32:56;;;;;;;19.13;8.73;;;;;;;;;;5091090;28;20115;-65
2022/03/28 11:35:21;;;;;;;32.25;11.07;;;;;;;;;;5097459;28;20409;-65
2022/03/28 11:37:48;;;;;;;25.52;10.05;;;;;;;;;;5097112;28;20389;-65
2022/03/28 11:40:13;;;;;;;11.15;4.70;;;;;;;;;;5094835;28;20066;-64
2022/03/28 11:42:44;;;;;;;5.28;2.80;;;;;;;;;;5095009;28;20507;-65
2022/03/28 11:45:10;;;;;;;21.90;9.30;;;;;;;;;;5096122;28;20044;-65
2022/03/28 11:47:37;;;;;;;42.10;12.02;;;;;;;;;;5097992;28;20241;-66
2022/03/28 11:50:04;;;;;;;9.80;6.25;;;;;;;;;;5095725;28;20104;-68
2022/03/28 11:52:30;;;;;;;29.27;5.88;;;;;;;;;;5093801;28;20074;-68
2022/03/28 11:54:57;;;;;;;19.83;7.03;;;;;;;;;;5096776;28;20044;-67
2022/03/28 12:00:11;;;;;;;17.52;7.35;;;;;;;;;;5100559;28;20104;-67
2022/03/28 12:02:45;;;;;;;12.25;4.70;;;;;;;;;;5095631;28;20073;-67
2022/03/28 12:05:10;;;;;;;23.38;8.82;;;;;;;;;;5100796;28;20778;-68
2022/03/28 12:07:36;;;;;;;16.13;6.90;;;;;;;;;;5099487;28;20067;-67
2022/03/28 12:10:02;;;;;;;19.15;7.13;;;;;;;;;;5098680;28;20161;-68
2022/03/28 12:12:27;;;;;;;14.85;5.45;;;;;;;;;;5098070;28;20186;-68
2022/03/28 12:14:53;;;;;;;9.32;5.63;;;;;;;;;;5100900;28;20044;-68
2022/03/28 12:17:29;;;;;;;18.00;6.20;;;;;;;;;;5101192;28;20054;-67
2022/03/28 12:20:04;;;;;;;28.63;6.72;;;;;;;;;;5099379;28;20123;-68
2022/03/28 12:22:29;;;;;;;15.73;7.13;;;;;;;;;;5098575;28;20044;-68
2022/03/28 12:24:56;;;;;;;18.88;7.97;;;;;;;;;;5101840;28;20070;-67
2022/03/28 12:27:23;;;;;;;10.85;7.80;;;;;;;;;;5104152;28;20499;-67
2022/03/28 12:29:52;;;;;;;10.98;4.00;;;;;;;;;;5100412;28;20175;-67
2022/03/28 12:32:17;;;;;;;21.70;9.52;;;;;;;;;;5098079;28;20051;-67
2022/03/28 12:34:43;;;;;;;18.33;7.75;;;;;;;;;;5101105;28;20537;-66
2022/03/28 12:37:12;;;;;;;31.08;9.55;;;;;;;;;;5097201;28;20040;-67
2022/03/28 12:39:41;;;;;;;15.40;9.55;;;;;;;;;;5099131;28;20112;-67
2022/03/28 12:42:06;;;;;;;13.88;8.00;;;;;;;;;;5101243;28;20074;-67
2022/03/28 12:44:33;;;;;;;12.70;3.95;;;;;;;;;;5100600;28;20044;-67
2022/03/28 12:47:06;;;;;;;12.82;5.97;;;;;;;;;;5102627;28;20075;-68
2022/03/28 12:49:52;;;;;;;13.20;6.68;;;;;;;;;;5100791;28;20043;-67
2022/03/28 12:52:24;;;;;;;6.55;3.92;;;;;;;;;;5100362;28;20036;-67
2022/03/28 12:54:53;;;;;;;9.80;5.25;;;;;;;;;;5098091;28;20039;-67
2022/03/28 12:57:30;;;;;;;8.45;5.10;;;;;;;;;;5097679;27;20078;-67
2022/03/28 12:59:55;;;;;;;15.57;7.50;;;;;;;;;;5097552;28;20055;-67
2022/03/28 13:02:21;;;;;;;11.05;3.50;;;;;;;;;;5099188;28;20052;-67
2022/03/28 13:04:49;;;;;;;19.35;6.40;;;;;;;;;;5099755;28;20086;-67
2022/03/28 13:07:21;;;;;;;29.10;5.25;;;;;;;;;;5099386;28;20049;-67
2022/03/28 13:09:53;;;;;;;32.67;8.40;;;;;;;;;;5097434;28;20130;-67
2022/03/28 13:12:18;;;;;;;7.30;5.10;;;;;;;;;;5099029;28;20083;-67
2022/03/28 13:14:52;;;;;;;5.80;4.15;;;;;;;;;;5096719;28;20579;-67
2022/03/28 13:17:19;;;;;;;37.25;12.70;;;;;;;;;;5100952;28;20170;-67
2022/03/28 13:19:57;;;;;;;24.83;7.50;;;;;;;;;;5100000;28;20039;-67
2022/03/28 13:22:40;;;;;;;14.98;5.82;;;;;;;;;;5095469;28;20063;-67
2022/03/28 13:25:06;;;;;;;5.22;1.98;;;;;;;;;;5098578;28;20126;-68
2022/03/28 13:30:16;;;;;;;16.13;8.50;;;;;;;;;;5096922;28;20159;-67
2022/03/28 13:32:41;;;;;;;12.52;8.90;;;;;;;;;;5096201;28;20089;-67
2022/03/28 13:35:07;;;;;;;17.98;4.25;;;;;;;;;;5097564;28;20074;-67
2022/03/28 13:37:32;;;;;;;28.73;9.32;;;;;;;;;;5096362;28;20044;-67
2022/03/28 13:39:57;;;;;;;9.05;4.80;;;;;;;;;;5099539;28;20055;-67
2022/03/28 13:42:23;;;;;;;26.52;7.82;;;;;;;;;;5098221;28;20055;-66
2022/03/28 13:44:48;;;;;;;23.73;10.68;;;;;;;;;;5100059;28;20044;-67
2022/03/28 13:47:14;;;;;;;34.38;11.63;;;;;;;;;;5097810;28;20048;-67
2022/03/28 13:49:39;;;;;;;14.60;9.55;;;;;;;;;;5095060;28;20037;-67
2022/03/28 13:52:04;;;;;;;18.95;11.02;;;;;;;;;;5097764;28;20036;-67
2022/03/28 13:54:30;;;;;;;12.68;6.50;;;;;;;;;;5097930;28;20047;-65
2022/03/28 13:56:55;;;;;;;28.83;8.77;;;;;;;;;;5096302;28;20468;-66
2022/03/28 13:59:20;;;;;;;15.00;5.30;;;;;;;;;;5100446;28;20062;-66
2022/03/28 14:01:46;;;;;;;12.95;5.10;;;;;;;;;;5100351;28;20075;-66
2022/03/28 14:04:11;;;;;;;38.90;6.75;;;;;;;;;;5096561;28;20184;-66
2022/03/28 14:06:36;;;;;;;23.17;6.63;;;;;;;;;;5095962;27;20083;-66
2022/03/28 14:09:03;;;;;;;13.18;7.93;;;;;;;;;;5096340;28;20063;-66
2022/03/28 14:11:29;;;;;;;12.20;8.05;;;;;;;;;;5098096;28;20052;-67
2022/03/28 14:13:54;;;;;;;20.88;10.00;;;;;;;;;;5097903;28;20040;-66
2022/03/28 14:16:20;;;;;;;10.90;7.93;;;;;;;;;;5099367;28;20475;-66
2022/03/28 14:18:48;;;;;;;11.65;6.72;;;;;;;;;;5097466;28;20040;-66
2022/03/28 14:21:15;;;;;;;7.25;5.78;;;;;;;;;;5096384;28;20043;-66
2022/03/28 14:23:40;;;;;;;7.70;4.93;;;;;;;;;;5096438;28;20066;-68